sensor_id;sensor_type;location;lat;lon;timestamp;P1;durP1;ratioP1;P2;durP2;ratioP2
7657;SDS011;8462;53.156;8.220;2022-07-01T00:05:46;5.73;;;5.13;;
7657;SDS011;8462;53.156;8.220;2022-07-01T00:08:14;6.13;;;5.53;;
7657;SDS011;8462;53.156;8.220;2022-07-01T00:10:40;6.40;;;5.63;;
7657;SDS011;8462;53.156;8.220;2022-07-01T00:13:08;7.70;;;5.80;;
7657;SDS011;8462;53.156;8.220;2022-07-01T00:15:34;8.57;;;5.87;;
7657;SDS011;8462;53.156;8.220;2022-07-01T00:18:02;7.20;;;6.27;;
7657;SDS011;8462;53.156;8.220;2022-07-01T00:20:29;9.53;;;7.00;;
7657;SDS011;8462;53.156;8.220;2022-07-01T00:22:58;7.83;;;6.10;;
7657;SDS011;8462;53.156;8.220;2022-07-01T00:25:25;6.77;;;5.60;;
7657;SDS011;8462;53.156;8.220;2022-07-01T00:27:52;5.97;;;5.13;;
7657;SDS011;8462;53.156;8.220;2022-07-01T00:30:19;8.50;;;6.03;;
7657;SDS011;8462;53.156;8.220;2022-07-01T00:32:54;7.33;;;5.93;;
7657;SDS011;8462;53.156;8.220;2022-07-01T00:35:24;8.23;;;5.80;;
7657;SDS011;8462;53.156;8.220;2022-07-01T00:37:52;6.50;;;5.57;;
7657;SDS011;8462;53.156;8.220;2022-07-01T00:40:26;8.63;;;5.43;;
7657;SDS011;8462;53.156;8.220;2022-07-01T00:42:55;7.93;;;5.13;;
7657;SDS011;8462;53.156;8.220;2022-07-01T00:45:23;6.73;;;4.37;;
7657;SDS011;8462;53.156;8.220;2022-07-01T00:47:50;12.47;;;6.03;;
7657;SDS011;8462;53.156;8.220;2022-07-01T00:50:17;8.03;;;6.50;;
7657;SDS011;8462;53.156;8.220;2022-07-01T00:52:48;8.07;;;4.80;;
7657;SDS011;8462;53.156;8.220;2022-07-01T00:55:16;10.93;;;4.67;;
7657;SDS011;8462;53.156;8.220;2022-07-01T00:57:44;8.57;;;5.37;;
7657;SDS011;8462;53.156;8.220;2022-07-01T01:00:11;8.90;;;4.33;;
7657;SDS011;8462;53.156;8.220;2022-07-01T01:02:40;13.43;;;4.57;;
7657;SDS011;8462;53.156;8.220;2022-07-01T01:05:07;7.57;;;4.10;;
7657;SDS011;8462;53.156;8.220;2022-07-01T01:07:35;10.53;;;4.80;;
7657;SDS011;8462;53.156;8.220;2022-07-01T01:10:03;9.20;;;4.07;;
7657;SDS011;8462;53.156;8.220;2022-07-01T01:12:30;6.30;;;4.63;;
7657;SDS011;8462;53.156;8.220;2022-07-01T01:15:00;6.33;;;4.03;;
7657;SDS011;8462;53.156;8.220;2022-07-01T01:17:27;6.57;;;3.60;;
7657;SDS011;8462;53.156;8.220;2022-07-01T01:19:54;7.90;;;4.47;;
7657;SDS011;8462;53.156;8.220;2022-07-01T01:22:23;8.30;;;3.50;;
7657;SDS011;8462;53.156;8.220;2022-07-01T01:24:50;8.03;;;3.40;;
7657;SDS011;8462;53.156;8.220;2022-07-01T01:27:18;11.00;;;4.20;;
7657;SDS011;8462;53.156;8.220;2022-07-01T01:29:45;13.33;;;4.73;;
7657;SDS011;8462;53.156;8.220;2022-07-01T01:32:12;9.23;;;3.97;;
7657;SDS011;8462;53.156;8.220;2022-07-01T01:34:38;8.00;;;4.50;;
7657;SDS011;8462;53.156;8.220;2022-07-01T01:37:06;8.67;;;4.73;;
7657;SDS011;8462;53.156;8.220;2022-07-01T01:39:35;8.17;;;4.37;;
7657;SDS011;8462;53.156;8.220;2022-07-01T01:42:03;8.57;;;4.00;;
7657;SDS011;8462;53.156;8.220;2022-07-01T01:44:33;6.17;;;4.23;;
7657;SDS011;8462;53.156;8.220;2022-07-01T01:47:03;11.83;;;4.37;;
7657;SDS011;8462;53.156;8.220;2022-07-01T01:49:31;12.57;;;4.07;;
7657;SDS011;8462;53.156;8.220;2022-07-01T01:51:59;9.27;;;3.23;;
7657;SDS011;8462;53.156;8.220;2022-07-01T01:54:26;7.40;;;4.10;;
7657;SDS011;8462;53.156;8.220;2022-07-01T01:56:54;6.80;;;3.80;;
7657;SDS011;8462;53.156;8.220;2022-07-01T01:59:21;9.53;;;3.90;;
7657;SDS011;8462;53.156;8.220;2022-07-01T02:01:48;6.47;;;4.47;;
7657;SDS011;8462;53.156;8.220;2022-07-01T02:04:15;12.57;;;4.63;;
7657;SDS011;8462;53.156;8.220;2022-07-01T02:06:42;7.80;;;4.10;;
7657;SDS011;8462;53.156;8.220;2022-07-01T02:09:09;6.80;;;3.17;;
7657;SDS011;8462;53.156;8.220;2022-07-01T02:11:36;8.33;;;2.90;;
7657;SDS011;8462;53.156;8.220;2022-07-01T02:14:04;6.93;;;2.90;;
7657;SDS011;8462;53.156;8.220;2022-07-01T02:16:31;4.67;;;2.50;;
7657;SDS011;8462;53.156;8.220;2022-07-01T02:18:58;5.67;;;2.83;;
7657;SDS011;8462;53.156;8.220;2022-07-01T02:21:25;4.67;;;2.70;;
7657;SDS011;8462;53.156;8.220;2022-07-01T02:23:53;8.30;;;2.33;;
7657;SDS011;8462;53.156;8.220;2022-07-01T02:26:20;4.67;;;2.20;;
7657;SDS011;8462;53.156;8.220;2022-07-01T02:28:47;4.80;;;2.10;;
7657;SDS011;8462;53.156;8.220;2022-07-01T02:31:16;4.23;;;2.00;;
7657;SDS011;8462;53.156;8.220;2022-07-01T02:33:43;4.27;;;1.97;;
7657;SDS011;8462;53.156;8.220;2022-07-01T02:36:10;4.10;;;1.60;;
7657;SDS011;8462;53.156;8.220;2022-07-01T02:38:37;5.73;;;1.70;;
7657;SDS011;8462;53.156;8.220;2022-07-01T02:41:03;8.07;;;1.57;;
7657;SDS011;8462;53.156;8.220;2022-07-01T02:43:30;5.50;;;1.83;;
7657;SDS011;8462;53.156;8.220;2022-07-01T02:45:57;1.90;;;1.30;;
7657;SDS011;8462;53.156;8.220;2022-07-01T02:48:26;1.80;;;1.30;;
7657;SDS011;8462;53.156;8.220;2022-07-01T02:50:53;2.20;;;1.33;;
7657;SDS011;8462;53.156;8.220;2022-07-01T02:53:19;5.03;;;1.73;;
7657;SDS011;8462;53.156;8.220;2022-07-01T02:55:46;2.30;;;1.50;;
7657;SDS011;8462;53.156;8.220;2022-07-01T02:58:14;2.60;;;1.37;;
7657;SDS011;8462;53.156;8.220;2022-07-01T03:00:41;4.43;;;1.80;;
7657;SDS011;8462;53.156;8.220;2022-07-01T03:03:08;5.43;;;1.73;;
7657;SDS011;8462;53.156;8.220;2022-07-01T03:05:36;2.80;;;1.63;;
7657;SDS011;8462;53.156;8.220;2022-07-01T03:08:04;4.37;;;1.50;;
7657;SDS011;8462;53.156;8.220;2022-07-01T03:10:31;2.93;;;1.50;;
7657;SDS011;8462;53.156;8.220;2022-07-01T03:12:58;3.77;;;1.40;;
7657;SDS011;8462;53.156;8.220;2022-07-01T03:15:27;3.37;;;1.67;;
7657;SDS011;8462;53.156;8.220;2022-07-01T03:17:54;2.67;;;1.50;;
7657;SDS011;8462;53.156;8.220;2022-07-01T03:20:21;2.83;;;1.33;;
7657;SDS011;8462;53.156;8.220;2022-07-01T03:22:49;6.07;;;1.77;;
7657;SDS011;8462;53.156;8.220;2022-07-01T03:25:17;4.83;;;1.37;;
7657;SDS011;8462;53.156;8.220;2022-07-01T03:27:44;2.37;;;1.27;;
7657;SDS011;8462;53.156;8.220;2022-07-01T03:30:13;2.23;;;1.60;;
7657;SDS011;8462;53.156;8.220;2022-07-01T03:32:41;1.83;;;1.20;;
7657;SDS011;8462;53.156;8.220;2022-07-01T03:35:08;3.43;;;1.27;;
7657;SDS011;8462;53.156;8.220;2022-07-01T03:37:55;2.97;;;1.50;;
7657;SDS011;8462;53.156;8.220;2022-07-01T03:40:23;3.37;;;1.30;;
7657;SDS011;8462;53.156;8.220;2022-07-01T03:42:50;4.30;;;1.37;;
7657;SDS011;8462;53.156;8.220;2022-07-01T03:45:17;4.03;;;1.13;;
7657;SDS011;8462;53.156;8.220;2022-07-01T03:47:44;2.57;;;1.10;;
7657;SDS011;8462;53.156;8.220;2022-07-01T03:50:13;2.77;;;1.00;;
7657;SDS011;8462;53.156;8.220;2022-07-01T03:52:40;2.03;;;1.00;;
7657;SDS011;8462;53.156;8.220;2022-07-01T03:55:09;1.63;;;1.10;;
7657;SDS011;8462;53.156;8.220;2022-07-01T03:57:36;4.40;;;0.90;;
7657;SDS011;8462;53.156;8.220;2022-07-01T04:00:03;2.27;;;1.10;;
7657;SDS011;8462;53.156;8.220;2022-07-01T04:02:31;1.40;;;1.00;;
7657;SDS011;8462;53.156;8.220;2022-07-01T04:04:59;3.07;;;1.40;;
7657;SDS011;8462;53.156;8.220;2022-07-01T04:07:25;2.60;;;1.37;;
7657;SDS011;8462;53.156;8.220;2022-07-01T04:09:53;3.07;;;1.03;;
7657;SDS011;8462;53.156;8.220;2022-07-01T04:12:21;2.40;;;1.17;;
7657;SDS011;8462;53.156;8.220;2022-07-01T04:14:48;1.70;;;1.20;;
7657;SDS011;8462;53.156;8.220;2022-07-01T04:17:16;3.00;;;1.50;;
7657;SDS011;8462;53.156;8.220;2022-07-01T04:19:44;2.50;;;1.10;;
7657;SDS011;8462;53.156;8.220;2022-07-01T04:22:11;2.93;;;1.20;;
7657;SDS011;8462;53.156;8.220;2022-07-01T04:25:07;4.10;;;1.30;;
7657;SDS011;8462;53.156;8.220;2022-07-01T04:27:36;2.00;;;1.30;;
7657;SDS011;8462;53.156;8.220;2022-07-01T04:30:03;2.80;;;1.50;;
7657;SDS011;8462;53.156;8.220;2022-07-01T04:32:31;1.87;;;1.30;;
7657;SDS011;8462;53.156;8.220;2022-07-01T04:34:59;2.40;;;1.47;;
7657;SDS011;8462;53.156;8.220;2022-07-01T04:37:26;2.47;;;1.70;;
7657;SDS011;8462;53.156;8.220;2022-07-01T04:39:52;2.87;;;1.40;;
7657;SDS011;8462;53.156;8.220;2022-07-01T04:42:19;3.17;;;1.43;;
7657;SDS011;8462;53.156;8.220;2022-07-01T04:44:48;3.30;;;1.50;;
7657;SDS011;8462;53.156;8.220;2022-07-01T04:47:15;4.87;;;2.47;;
7657;SDS011;8462;53.156;8.220;2022-07-01T04:49:42;4.90;;;1.30;;
7657;SDS011;8462;53.156;8.220;2022-07-01T04:52:09;3.73;;;1.70;;
7657;SDS011;8462;53.156;8.220;2022-07-01T04:54:36;3.60;;;1.43;;
7657;SDS011;8462;53.156;8.220;2022-07-01T04:57:03;3.63;;;1.53;;
7657;SDS011;8462;53.156;8.220;2022-07-01T04:59:30;2.83;;;1.50;;
7657;SDS011;8462;53.156;8.220;2022-07-01T05:01:59;3.23;;;1.40;;
7657;SDS011;8462;53.156;8.220;2022-07-01T05:04:26;1.87;;;1.67;;
7657;SDS011;8462;53.156;8.220;2022-07-01T05:06:53;1.83;;;1.67;;
7657;SDS011;8462;53.156;8.220;2022-07-01T05:09:20;1.53;;;1.43;;
7657;SDS011;8462;53.156;8.220;2022-07-01T05:11:47;4.17;;;2.07;;
7657;SDS011;8462;53.156;8.220;2022-07-01T05:14:14;2.30;;;1.90;;
7657;SDS011;8462;53.156;8.220;2022-07-01T05:16:41;3.40;;;1.97;;
7657;SDS011;8462;53.156;8.220;2022-07-01T05:19:09;3.47;;;2.07;;
7657;SDS011;8462;53.156;8.220;2022-07-01T05:21:54;4.93;;;2.17;;
7657;SDS011;8462;53.156;8.220;2022-07-01T05:24:28;2.30;;;1.80;;
7657;SDS011;8462;53.156;8.220;2022-07-01T05:26:56;4.17;;;2.30;;
7657;SDS011;8462;53.156;8.220;2022-07-01T05:29:24;2.80;;;2.10;;
7657;SDS011;8462;53.156;8.220;2022-07-01T05:31:51;2.80;;;2.07;;
7657;SDS011;8462;53.156;8.220;2022-07-01T05:34:19;2.57;;;1.90;;
7657;SDS011;8462;53.156;8.220;2022-07-01T05:36:46;4.00;;;1.97;;
7657;SDS011;8462;53.156;8.220;2022-07-01T05:39:13;2.83;;;1.93;;
7657;SDS011;8462;53.156;8.220;2022-07-01T05:41:40;2.97;;;2.00;;
7657;SDS011;8462;53.156;8.220;2022-07-01T05:44:07;4.07;;;2.13;;
7657;SDS011;8462;53.156;8.220;2022-07-01T05:46:34;3.80;;;2.70;;
7657;SDS011;8462;53.156;8.220;2022-07-01T05:49:01;4.87;;;2.60;;
7657;SDS011;8462;53.156;8.220;2022-07-01T05:51:30;3.70;;;2.47;;
7657;SDS011;8462;53.156;8.220;2022-07-01T05:53:57;3.40;;;2.60;;
7657;SDS011;8462;53.156;8.220;2022-07-01T05:56:24;6.33;;;3.40;;
7657;SDS011;8462;53.156;8.220;2022-07-01T05:58:52;5.23;;;3.27;;
7657;SDS011;8462;53.156;8.220;2022-07-01T06:01:19;3.30;;;3.00;;
7657;SDS011;8462;53.156;8.220;2022-07-01T06:03:46;5.60;;;4.03;;
7657;SDS011;8462;53.156;8.220;2022-07-01T06:06:13;5.50;;;3.67;;
7657;SDS011;8462;53.156;8.220;2022-07-01T06:08:41;5.67;;;4.47;;
7657;SDS011;8462;53.156;8.220;2022-07-01T06:11:08;5.20;;;4.70;;
7657;SDS011;8462;53.156;8.220;2022-07-01T06:13:35;5.43;;;4.60;;
7657;SDS011;8462;53.156;8.220;2022-07-01T06:16:02;6.00;;;4.70;;
7657;SDS011;8462;53.156;8.220;2022-07-01T06:18:30;8.30;;;5.10;;
7657;SDS011;8462;53.156;8.220;2022-07-01T06:20:57;7.47;;;5.80;;
7657;SDS011;8462;53.156;8.220;2022-07-01T06:23:24;7.90;;;6.27;;
7657;SDS011;8462;53.156;8.220;2022-07-01T06:25:52;6.90;;;5.50;;
7657;SDS011;8462;53.156;8.220;2022-07-01T06:28:19;7.83;;;6.27;;
7657;SDS011;8462;53.156;8.220;2022-07-01T06:30:46;8.47;;;7.30;;
7657;SDS011;8462;53.156;8.220;2022-07-01T06:33:15;10.20;;;6.80;;
7657;SDS011;8462;53.156;8.220;2022-07-01T06:35:41;9.27;;;6.83;;
7657;SDS011;8462;53.156;8.220;2022-07-01T06:38:08;8.97;;;7.27;;
7657;SDS011;8462;53.156;8.220;2022-07-01T06:40:35;9.37;;;6.43;;
7657;SDS011;8462;53.156;8.220;2022-07-01T06:43:04;8.90;;;6.70;;
7657;SDS011;8462;53.156;8.220;2022-07-01T06:45:31;8.30;;;6.87;;
7657;SDS011;8462;53.156;8.220;2022-07-01T06:47:58;8.80;;;7.60;;
7657;SDS011;8462;53.156;8.220;2022-07-01T06:50:26;10.53;;;7.83;;
7657;SDS011;8462;53.156;8.220;2022-07-01T06:52:53;9.03;;;7.57;;
7657;SDS011;8462;53.156;8.220;2022-07-01T06:55:20;8.40;;;7.10;;
7657;SDS011;8462;53.156;8.220;2022-07-01T06:57:47;10.33;;;7.63;;
7657;SDS011;8462;53.156;8.220;2022-07-01T07:00:16;9.90;;;8.00;;
7657;SDS011;8462;53.156;8.220;2022-07-01T07:02:43;10.33;;;8.30;;
7657;SDS011;8462;53.156;8.220;2022-07-01T07:05:10;9.43;;;8.00;;
7657;SDS011;8462;53.156;8.220;2022-07-01T07:07:37;10.90;;;8.93;;
7657;SDS011;8462;53.156;8.220;2022-07-01T07:10:04;10.73;;;8.63;;
7657;SDS011;8462;53.156;8.220;2022-07-01T07:12:32;11.93;;;9.33;;
7657;SDS011;8462;53.156;8.220;2022-07-01T07:14:59;10.87;;;9.57;;
7657;SDS011;8462;53.156;8.220;2022-07-01T07:17:27;11.77;;;10.10;;
7657;SDS011;8462;53.156;8.220;2022-07-01T07:19:54;13.80;;;9.67;;
7657;SDS011;8462;53.156;8.220;2022-07-01T07:22:21;11.37;;;9.80;;
7657;SDS011;8462;53.156;8.220;2022-07-01T07:24:48;13.47;;;10.73;;
7657;SDS011;8462;53.156;8.220;2022-07-01T07:27:16;13.43;;;10.23;;
7657;SDS011;8462;53.156;8.220;2022-07-01T07:29:43;16.53;;;11.23;;
7657;SDS011;8462;53.156;8.220;2022-07-01T07:32:10;14.10;;;11.00;;
7657;SDS011;8462;53.156;8.220;2022-07-01T07:34:38;16.57;;;12.33;;
7657;SDS011;8462;53.156;8.220;2022-07-01T07:37:05;15.33;;;12.50;;
7657;SDS011;8462;53.156;8.220;2022-07-01T07:39:32;16.50;;;12.13;;
7657;SDS011;8462;53.156;8.220;2022-07-01T07:41:59;16.37;;;12.33;;
7657;SDS011;8462;53.156;8.220;2022-07-01T07:45:41;20.03;;;12.57;;
7657;SDS011;8462;53.156;8.220;2022-07-01T07:49:22;18.17;;;12.73;;
7657;SDS011;8462;53.156;8.220;2022-07-01T07:53:05;15.47;;;11.87;;
7657;SDS011;8462;53.156;8.220;2022-07-01T07:56:45;21.83;;;14.37;;
7657;SDS011;8462;53.156;8.220;2022-07-01T08:00:26;14.03;;;12.17;;
7657;SDS011;8462;53.156;8.220;2022-07-01T08:04:07;15.80;;;12.27;;
7657;SDS011;8462;53.156;8.220;2022-07-01T08:07:48;15.60;;;12.27;;
7657;SDS011;8462;53.156;8.220;2022-07-01T08:11:32;14.90;;;11.27;;
7657;SDS011;8462;53.156;8.220;2022-07-01T08:15:13;16.27;;;12.33;;
7657;SDS011;8462;53.156;8.220;2022-07-01T08:18:56;15.20;;;11.63;;
7657;SDS011;8462;53.156;8.220;2022-07-01T08:22:37;16.00;;;11.83;;
7657;SDS011;8462;53.156;8.220;2022-07-01T08:26:18;13.57;;;10.53;;
7657;SDS011;8462;53.156;8.220;2022-07-01T08:30:01;16.77;;;10.43;;
7657;SDS011;8462;53.156;8.220;2022-07-01T08:33:42;14.03;;;10.97;;
7657;SDS011;8462;53.156;8.220;2022-07-01T08:37:23;15.43;;;10.80;;
7657;SDS011;8462;53.156;8.220;2022-07-01T08:41:05;12.57;;;10.73;;
7657;SDS011;8462;53.156;8.220;2022-07-01T08:44:46;14.60;;;10.50;;
7657;SDS011;8462;53.156;8.220;2022-07-01T08:48:30;14.20;;;11.07;;
7657;SDS011;8462;53.156;8.220;2022-07-01T08:52:10;12.80;;;10.30;;
7657;SDS011;8462;53.156;8.220;2022-07-01T08:55:52;14.03;;;10.30;;
7657;SDS011;8462;53.156;8.220;2022-07-01T08:59:33;14.10;;;10.53;;
7657;SDS011;8462;53.156;8.220;2022-07-01T20:01:03;4.13;;;1.40;;
7657;SDS011;8462;53.156;8.220;2022-07-01T20:03:32;2.60;;;1.57;;
7657;SDS011;8462;53.156;8.220;2022-07-01T20:06:00;5.50;;;1.83;;
7657;SDS011;8462;53.156;8.220;2022-07-01T20:08:27;2.40;;;1.40;;
7657;SDS011;8462;53.156;8.220;2022-07-01T20:10:54;2.80;;;1.40;;
7657;SDS011;8462;53.156;8.220;2022-07-01T20:13:21;1.90;;;1.30;;
7657;SDS011;8462;53.156;8.220;2022-07-01T20:15:48;2.87;;;1.40;;
7657;SDS011;8462;53.156;8.220;2022-07-01T20:18:16;2.47;;;1.40;;
7657;SDS011;8462;53.156;8.220;2022-07-01T20:20:46;4.10;;;1.80;;
7657;SDS011;8462;53.156;8.220;2022-07-01T20:23:13;8.90;;;4.73;;
7657;SDS011;8462;53.156;8.220;2022-07-01T20:25:40;7.13;;;3.20;;
7657;SDS011;8462;53.156;8.220;2022-07-01T20:28:07;7.70;;;6.43;;
7657;SDS011;8462;53.156;8.220;2022-07-01T20:30:36;5.27;;;1.67;;
7657;SDS011;8462;53.156;8.220;2022-07-01T20:33:03;2.63;;;1.50;;
7657;SDS011;8462;53.156;8.220;2022-07-01T20:35:31;3.30;;;1.43;;
7657;SDS011;8462;53.156;8.220;2022-07-01T20:37:58;3.17;;;1.40;;
7657;SDS011;8462;53.156;8.220;2022-07-01T20:40:25;3.37;;;2.20;;
7657;SDS011;8462;53.156;8.220;2022-07-01T20:43:06;4.73;;;1.63;;
7657;SDS011;8462;53.156;8.220;2022-07-01T20:45:33;2.33;;;2.13;;
7657;SDS011;8462;53.156;8.220;2022-07-01T20:48:05;3.37;;;1.70;;
7657;SDS011;8462;53.156;8.220;2022-07-01T20:50:36;5.47;;;2.27;;
7657;SDS011;8462;53.156;8.220;2022-07-01T20:53:05;2.67;;;1.57;;
7657;SDS011;8462;53.156;8.220;2022-07-01T20:55:34;5.97;;;2.37;;
7657;SDS011;8462;53.156;8.220;2022-07-01T20:58:01;4.03;;;1.90;;
7657;SDS011;8462;53.156;8.220;2022-07-01T21:00:28;5.83;;;2.23;;
7657;SDS011;8462;53.156;8.220;2022-07-01T21:02:55;4.90;;;2.80;;
7657;SDS011;8462;53.156;8.220;2022-07-01T21:05:22;3.93;;;2.03;;
7657;SDS011;8462;53.156;8.220;2022-07-01T21:07:50;3.70;;;2.03;;
7657;SDS011;8462;53.156;8.220;2022-07-01T21:10:17;2.03;;;1.83;;
7657;SDS011;8462;53.156;8.220;2022-07-01T21:12:45;9.57;;;6.70;;
7657;SDS011;8462;53.156;8.220;2022-07-01T21:15:12;7.43;;;3.90;;
7657;SDS011;8462;53.156;8.220;2022-07-01T21:17:43;3.17;;;2.10;;
7657;SDS011;8462;53.156;8.220;2022-07-01T21:20:12;7.87;;;4.50;;
7657;SDS011;8462;53.156;8.220;2022-07-01T21:22:39;3.53;;;2.10;;
7657;SDS011;8462;53.156;8.220;2022-07-01T21:25:08;2.43;;;1.80;;
7657;SDS011;8462;53.156;8.220;2022-07-01T21:27:35;4.57;;;1.90;;
7657;SDS011;8462;53.156;8.220;2022-07-01T21:30:04;3.57;;;2.90;;
7657;SDS011;8462;53.156;8.220;2022-07-01T21:32:37;4.90;;;2.17;;
7657;SDS011;8462;53.156;8.220;2022-07-01T21:35:07;6.90;;;3.00;;
7657;SDS011;8462;53.156;8.220;2022-07-01T21:37:34;3.83;;;1.90;;
7657;SDS011;8462;53.156;8.220;2022-07-01T21:40:01;4.00;;;1.97;;
7657;SDS011;8462;53.156;8.220;2022-07-01T21:42:31;8.07;;;3.70;;
7657;SDS011;8462;53.156;8.220;2022-07-01T21:44:58;7.63;;;5.93;;
7657;SDS011;8462;53.156;8.220;2022-07-01T21:47:25;5.17;;;3.13;;
7657;SDS011;8462;53.156;8.220;2022-07-01T21:49:56;5.10;;;2.30;;
7657;SDS011;8462;53.156;8.220;2022-07-01T21:52:24;4.20;;;1.60;;
7657;SDS011;8462;53.156;8.220;2022-07-01T21:54:59;2.60;;;1.57;;
7657;SDS011;8462;53.156;8.220;2022-07-01T21:57:32;3.23;;;2.10;;
7657;SDS011;8462;53.156;8.220;2022-07-01T22:00:00;2.60;;;1.77;;
7657;SDS011;8462;53.156;8.220;2022-07-01T22:02:34;4.17;;;2.23;;
7657;SDS011;8462;53.156;8.220;2022-07-01T22:05:04;3.27;;;2.33;;
7657;SDS011;8462;53.156;8.220;2022-07-01T22:07:33;3.70;;;1.77;;
7657;SDS011;8462;53.156;8.220;2022-07-01T22:10:01;3.53;;;2.20;;
7657;SDS011;8462;53.156;8.220;2022-07-01T22:12:33;3.23;;;1.87;;
7657;SDS011;8462;53.156;8.220;2022-07-01T22:15:03;5.67;;;2.00;;
7657;SDS011;8462;53.156;8.220;2022-07-01T22:17:34;6.23;;;2.17;;
7657;SDS011;8462;53.156;8.220;2022-07-01T22:20:03;5.77;;;2.50;;
7657;SDS011;8462;53.156;8.220;2022-07-01T22:22:34;4.53;;;2.30;;
7657;SDS011;8462;53.156;8.220;2022-07-01T22:25:03;4.87;;;2.17;;
7657;SDS011;8462;53.156;8.220;2022-07-01T22:27:31;7.83;;;4.07;;
7657;SDS011;8462;53.156;8.220;2022-07-01T22:30:03;3.93;;;1.80;;
7657;SDS011;8462;53.156;8.220;2022-07-01T22:32:32;4.57;;;2.50;;
7657;SDS011;8462;53.156;8.220;2022-07-01T22:35:00;6.47;;;2.77;;
7657;SDS011;8462;53.156;8.220;2022-07-01T22:37:29;3.57;;;2.23;;
7657;SDS011;8462;53.156;8.220;2022-07-01T22:39:56;3.50;;;2.70;;
7657;SDS011;8462;53.156;8.220;2022-07-01T22:42:24;2.40;;;2.10;;
7657;SDS011;8462;53.156;8.220;2022-07-01T22:44:54;4.97;;;2.17;;
7657;SDS011;8462;53.156;8.220;2022-07-01T22:47:23;5.13;;;2.60;;
7657;SDS011;8462;53.156;8.220;2022-07-01T22:50:02;5.47;;;2.70;;
7657;SDS011;8462;53.156;8.220;2022-07-01T22:52:34;6.53;;;2.80;;
7657;SDS011;8462;53.156;8.220;2022-07-01T22:55:11;4.03;;;2.60;;
7657;SDS011;8462;53.156;8.220;2022-07-01T22:57:55;7.20;;;2.53;;
7657;SDS011;8462;53.156;8.220;2022-07-01T23:00:32;3.13;;;2.33;;
7657;SDS011;8462;53.156;8.220;2022-07-01T23:03:07;5.43;;;2.60;;
7657;SDS011;8462;53.156;8.220;2022-07-01T23:05:38;4.57;;;2.00;;
7657;SDS011;8462;53.156;8.220;2022-07-01T23:08:15;3.30;;;2.20;;
7657;SDS011;8462;53.156;8.220;2022-07-01T23:10:50;5.53;;;2.80;;
7657;SDS011;8462;53.156;8.220;2022-07-01T23:13:22;5.27;;;2.60;;
7657;SDS011;8462;53.156;8.220;2022-07-01T23:15:58;3.10;;;2.40;;
7657;SDS011;8462;53.156;8.220;2022-07-01T23:18:45;5.63;;;2.43;;
7657;SDS011;8462;53.156;8.220;2022-07-01T23:21:13;2.37;;;2.13;;
7657;SDS011;8462;53.156;8.220;2022-07-01T23:23:41;5.57;;;2.67;;
7657;SDS011;8462;53.156;8.220;2022-07-01T23:26:11;4.67;;;2.53;;
7657;SDS011;8462;53.156;8.220;2022-07-01T23:28:41;4.50;;;2.20;;
7657;SDS011;8462;53.156;8.220;2022-07-01T23:31:12;6.53;;;2.83;;
7657;SDS011;8462;53.156;8.220;2022-07-01T23:33:43;5.70;;;2.13;;
7657;SDS011;8462;53.156;8.220;2022-07-01T23:36:12;4.20;;;2.53;;
7657;SDS011;8462;53.156;8.220;2022-07-01T23:38:42;3.57;;;2.63;;
7657;SDS011;8462;53.156;8.220;2022-07-01T23:41:11;4.63;;;2.60;;
7657;SDS011;8462;53.156;8.220;2022-07-01T23:43:41;3.57;;;1.93;;
7657;SDS011;8462;53.156;8.220;2022-07-01T23:46:09;3.63;;;2.40;;
7657;SDS011;8462;53.156;8.220;2022-07-01T23:48:38;3.80;;;2.20;;
7657;SDS011;8462;53.156;8.220;2022-07-01T23:51:07;4.33;;;2.57;;
7657;SDS011;8462;53.156;8.220;2022-07-01T23:53:35;3.73;;;2.80;;
7657;SDS011;8462;53.156;8.220;2022-07-01T23:56:02;3.13;;;2.20;;
7657;SDS011;8462;53.156;8.220;2022-07-01T23:58:30;5.03;;;2.43;;
